sensor_id;sensor_type;location;lat;lon;timestamp;pressure;altitude;pressure_sealevel;temperature;humidity
7930;BME280;4010;42.698;23.124;2022-09-09T00:00:24;33009.78;;;-140.64;100.00
7930;BME280;4010;42.698;23.124;2022-09-09T00:02:57;32239.03;;;-140.64;100.00
7930;BME280;4010;42.698;23.124;2022-09-09T00:05:33;31468.44;;;-140.64;100.00
7930;BME280;4010;42.698;23.124;2022-09-09T00:08:04;32495.91;;;-140.64;100.00
7930;BME280;4010;42.698;23.124;2022-09-09T00:10:33;33780.72;;;-140.64;100.00
7930;BME280;4010;42.698;23.124;2022-09-09T00:13:09;33009.78;;;-140.64;100.00
7930;BME280;4010;42.698;23.124;2022-09-09T00:15:49;32752.84;;;-140.64;100.00
7930;BME280;4010;42.698;23.124;2022-09-09T00:18:24;33266.75;;;-140.64;100.00
7930;BME280;4010;42.698;23.124;2022-09-09T00:20:58;32495.91;;;-140.64;100.00
7930;BME280;4010;42.698;23.124;2022-09-09T00:23:32;31211.63;;;-140.64;100.00
7930;BME280;4010;42.698;23.124;2022-09-09T00:26:07;30184.53;;;-140.64;100.00
7930;BME280;4010;42.698;23.124;2022-09-09T00:28:41;28387.88;;;-140.64;100.00
7930;BME280;4010;42.698;23.124;2022-09-09T00:31:14;27105.16;;;-140.64;100.00
7930;BME280;4010;42.698;23.124;2022-09-09T00:33:43;26592.19;;;-140.64;100.00
7930;BME280;4010;42.698;23.124;2022-09-09T00:36:13;27105.16;;;-140.64;100.00
7930;BME280;4010;42.698;23.124;2022-09-09T00:38:44;28387.88;;;-140.64;100.00
7930;BME280;4010;42.698;23.124;2022-09-09T00:41:14;28387.88;;;-140.64;100.00
7930;BME280;4010;42.698;23.124;2022-09-09T00:43:55;28901.09;;;-140.64;100.00
7930;BME280;4010;42.698;23.124;2022-09-09T00:46:48;28644.47;;;-140.64;100.00
7930;BME280;4010;42.698;23.124;2022-09-09T00:49:24;28387.88;;;-140.64;100.00
7930;BME280;4010;42.698;23.124;2022-09-09T00:52:01;28644.47;;;-140.64;100.00
7930;BME280;4010;42.698;23.124;2022-09-09T00:54:38;29414.41;;;-140.64;100.00
7930;BME280;4010;42.698;23.124;2022-09-09T00:57:15;28131.28;;;-140.64;100.00
7930;BME280;4010;42.698;23.124;2022-09-09T00:59:48;28387.88;;;-140.64;100.00
7930;BME280;4010;42.698;23.124;2022-09-09T01:02:26;28387.88;;;-140.64;100.00
7930;BME280;4010;42.698;23.124;2022-09-09T01:04:55;28387.88;;;-140.64;100.00
7930;BME280;4010;42.698;23.124;2022-09-09T01:07:23;26592.19;;;-140.64;100.00
7930;BME280;4010;42.698;23.124;2022-09-09T01:09:56;27618.19;;;-140.64;100.00
7930;BME280;4010;42.698;23.124;2022-09-09T01:12:34;28131.28;;;-140.64;100.00
7930;BME280;4010;42.698;23.124;2022-09-09T01:15:13;28131.28;;;-140.64;100.00
7930;BME280;4010;42.698;23.124;2022-09-09T01:17:51;27874.72;;;-140.64;100.00
7930;BME280;4010;42.698;23.124;2022-09-09T01:20:24;27105.16;;;-140.64;100.00
7930;BME280;4010;42.698;23.124;2022-09-09T01:23:24;26848.66;;;-140.64;100.00
7930;BME280;4010;42.698;23.124;2022-09-09T01:26:11;26592.19;;;-140.64;100.00
7930;BME280;4010;42.698;23.124;2022-09-09T01:28:40;26848.66;;;-140.64;100.00
7930;BME280;4010;42.698;23.124;2022-09-09T01:31:11;26592.19;;;-140.64;100.00
7930;BME280;4010;42.698;23.124;2022-09-09T01:33:40;26848.66;;;-140.64;100.00
7930;BME280;4010;42.698;23.124;2022-09-09T01:36:08;26848.66;;;-140.64;100.00
7930;BME280;4010;42.698;23.124;2022-09-09T01:38:37;26079.31;;;-140.64;100.00
7930;BME280;4010;42.698;23.124;2022-09-09T01:41:05;26335.75;;;-140.64;100.00
7930;BME280;4010;42.698;23.124;2022-09-09T01:43:32;26079.31;;;-140.64;100.00
7930;BME280;4010;42.698;23.124;2022-09-09T01:46:00;25822.91;;;-140.64;100.00
7930;BME280;4010;42.698;23.124;2022-09-09T01:48:28;25053.81;;;-140.64;100.00
7930;BME280;4010;42.698;23.124;2022-09-09T01:50:55;25566.53;;;-140.64;100.00
7930;BME280;4010;42.698;23.124;2022-09-09T01:53:22;24541.16;;;-140.64;100.00
7930;BME280;4010;42.698;23.124;2022-09-09T01:55:57;24028.63;;;-140.64;100.00
7930;BME280;4010;42.698;23.124;2022-09-09T01:58:34;24541.16;;;-140.64;100.00
7930;BME280;4010;42.698;23.124;2022-09-09T02:01:10;24541.16;;;-140.64;100.00
7930;BME280;4010;42.698;23.124;2022-09-09T02:03:44;24028.63;;;-140.64;100.00
7930;BME280;4010;42.698;23.124;2022-09-09T02:06:25;22747.56;;;-140.64;100.00
7930;BME280;4010;42.698;23.124;2022-09-09T02:08:55;23259.94;;;-140.64;100.00
7930;BME280;4010;42.698;23.124;2022-09-09T02:11:24;23259.94;;;-140.64;100.00
7930;BME280;4010;42.698;23.124;2022-09-09T02:13:55;23516.13;;;-140.64;100.00
7930;BME280;4010;42.698;23.124;2022-09-09T02:16:26;24028.63;;;-140.64;100.00
7930;BME280;4010;42.698;23.124;2022-09-09T02:18:56;24028.63;;;-140.64;100.00
7930;BME280;4010;42.698;23.124;2022-09-09T02:21:25;24284.88;;;-140.64;100.00
7930;BME280;4010;42.698;23.124;2022-09-09T02:23:56;24028.63;;;-140.64;100.00
7930;BME280;4010;42.698;23.124;2022-09-09T02:26:25;23772.38;;;-140.64;100.00
7930;BME280;4010;42.698;23.124;2022-09-09T02:28:55;23772.38;;;-140.64;100.00
7930;BME280;4010;42.698;23.124;2022-09-09T02:31:24;23259.94;;;-140.64;100.00
7930;BME280;4010;42.698;23.124;2022-09-09T02:33:53;22747.56;;;-140.64;100.00
7930;BME280;4010;42.698;23.124;2022-09-09T02:36:23;23516.13;;;-140.64;100.00
7930;BME280;4010;42.698;23.124;2022-09-09T02:38:51;23772.38;;;-140.64;100.00
7930;BME280;4010;42.698;23.124;2022-09-09T02:41:23;24028.63;;;-140.64;100.00
7930;BME280;4010;42.698;23.124;2022-09-09T02:43:50;23772.38;;;-140.64;100.00
7930;BME280;4010;42.698;23.124;2022-09-09T02:46:36;23516.13;;;-140.64;100.00
7930;BME280;4010;42.698;23.124;2022-09-09T02:49:09;23516.13;;;-140.64;100.00
7930;BME280;4010;42.698;23.124;2022-09-09T02:51:42;23259.94;;;-140.64;100.00
7930;BME280;4010;42.698;23.124;2022-09-09T02:54:17;25053.81;;;-140.64;100.00
7930;BME280;4010;42.698;23.124;2022-09-09T02:56:51;25566.53;;;-140.64;100.00
7930;BME280;4010;42.698;23.124;2022-09-09T02:59:20;25566.53;;;-140.64;100.00
7930;BME280;4010;42.698;23.124;2022-09-09T03:01:49;24284.88;;;-140.64;100.00
7930;BME280;4010;42.698;23.124;2022-09-09T03:04:52;24284.88;;;-140.64;100.00
7930;BME280;4010;42.698;23.124;2022-09-09T03:08:17;63539.00;;;-140.65;100.00
7930;BME280;4010;42.698;23.124;2022-09-09T03:11:43;63539.00;;;-140.65;100.00
7930;BME280;4010;42.698;23.124;2022-09-09T03:15:07;63539.00;;;-140.65;100.00
7930;BME280;4010;42.698;23.124;2022-09-09T03:17:36;22747.56;;;-140.64;100.00
7930;BME280;4010;42.698;23.124;2022-09-09T03:20:03;23003.72;;;-140.64;100.00
7930;BME280;4010;42.698;23.124;2022-09-09T03:53:46;14560.53;;;-140.64;100.00
7930;BME280;4010;42.698;23.124;2022-09-09T03:56:13;16349.72;;;-140.64;100.00
7930;BME280;4010;42.698;23.124;2022-09-09T03:58:40;18395.69;;;-140.64;100.00
7930;BME280;4010;42.698;23.124;2022-09-09T04:01:09;18907.38;;;-140.64;100.00
7930;BME280;4010;42.698;23.124;2022-09-09T04:03:35;21467.00;;;-140.64;100.00
7930;BME280;4010;42.698;23.124;2022-09-09T04:06:03;21210.97;;;-140.64;100.00
7930;BME280;4010;42.698;23.124;2022-09-09T04:08:32;23772.38;;;-140.64;100.00
7930;BME280;4010;42.698;23.124;2022-09-09T04:11:00;23259.94;;;-140.64;100.00
7930;BME280;4010;42.698;23.124;2022-09-09T04:13:31;23259.94;;;-140.64;100.00
7930;BME280;4010;42.698;23.124;2022-09-09T04:16:00;23003.72;;;-140.64;100.00
7930;BME280;4010;42.698;23.124;2022-09-09T04:18:27;22747.56;;;-140.64;100.00
7930;BME280;4010;42.698;23.124;2022-09-09T04:20:54;23259.94;;;-140.64;100.00
7930;BME280;4010;42.698;23.124;2022-09-09T04:23:23;24284.88;;;-140.64;100.00
7930;BME280;4010;42.698;23.124;2022-09-09T04:25:51;23772.38;;;-140.64;100.00
7930;BME280;4010;42.698;23.124;2022-09-09T04:28:21;22747.56;;;-140.64;100.00
7930;BME280;4010;42.698;23.124;2022-09-09T04:30:49;20954.91;;;-140.64;100.00
7930;BME280;4010;42.698;23.124;2022-09-09T04:33:15;18395.69;;;-140.64;100.00
7930;BME280;4010;42.698;23.124;2022-09-09T04:35:45;15327.19;;;-140.64;100.00
7930;BME280;4010;42.698;23.124;2022-09-09T04:38:13;14816.06;;;-140.64;100.00
7930;BME280;4010;42.698;23.124;2022-09-09T04:40:42;14816.06;;;-140.64;100.00
7930;BME280;4010;42.698;23.124;2022-09-09T04:43:09;12772.31;;;-140.64;100.00
7930;BME280;4010;42.698;23.124;2022-09-09T04:45:37;22491.41;;;-140.64;100.00
7930;BME280;4010;42.698;23.124;2022-09-09T04:48:05;76455.97;;;-140.64;100.00
7930;BME280;4010;42.698;23.124;2022-09-09T04:50:32;118349.16;;;-140.64;100.00
7930;BME280;4010;42.698;23.124;2022-09-09T04:53:00;118349.16;;;-140.64;100.00
7930;BME280;4010;42.698;23.124;2022-09-09T04:55:27;118349.16;;;-140.64;100.00
7930;BME280;4010;42.698;23.124;2022-09-09T04:57:54;118349.16;;;-140.64;100.00
7930;BME280;4010;42.698;23.124;2022-09-09T05:00:20;118349.16;;;-140.64;100.00
7930;BME280;4010;42.698;23.124;2022-09-09T05:02:48;118349.16;;;-140.64;100.00
7930;BME280;4010;42.698;23.124;2022-09-09T05:05:16;118349.16;;;-140.64;100.00
7930;BME280;4010;42.698;23.124;2022-09-09T05:07:43;118349.16;;;-140.64;100.00
7930;BME280;4010;42.698;23.124;2022-09-09T05:10:11;118349.16;;;-140.64;100.00
7930;BME280;4010;42.698;23.124;2022-09-09T05:12:41;118349.16;;;-140.64;100.00
7930;BME280;4010;42.698;23.124;2022-09-09T05:15:09;118349.16;;;-140.64;100.00
7930;BME280;4010;42.698;23.124;2022-09-09T05:17:37;118349.16;;;-140.64;99.42
7930;BME280;4010;42.698;23.124;2022-09-09T05:20:05;118349.16;;;-140.64;98.79
7930;BME280;4010;42.698;23.124;2022-09-09T05:22:32;118349.16;;;-140.64;97.36
7930;BME280;4010;42.698;23.124;2022-09-09T05:24:59;118349.16;;;-140.64;96.26
7930;BME280;4010;42.698;23.124;2022-09-09T05:27:27;118349.16;;;-140.64;95.27
7930;BME280;4010;42.698;23.124;2022-09-09T05:29:56;118349.16;;;-140.64;92.74
7930;BME280;4010;42.698;23.124;2022-09-09T05:32:23;118349.16;;;-140.64;85.09
7930;BME280;4010;42.698;23.124;2022-09-09T05:34:50;118349.16;;;-140.64;90.24
7930;BME280;4010;42.698;23.124;2022-09-09T05:37:18;118349.16;;;-140.64;89.87
7930;BME280;4010;42.698;23.124;2022-09-09T05:39:45;118349.16;;;-140.64;97.20
7930;BME280;4010;42.698;23.124;2022-09-09T05:42:12;118349.16;;;-140.64;95.84
7930;BME280;4010;42.698;23.124;2022-09-09T05:44:39;118349.16;;;-140.64;100.00
7930;BME280;4010;42.698;23.124;2022-09-09T05:47:08;118349.16;;;-140.64;99.88
7930;BME280;4010;42.698;23.124;2022-09-09T05:49:34;118349.16;;;-140.64;97.41
7930;BME280;4010;42.698;23.124;2022-09-09T05:52:02;118349.16;;;-140.64;100.00
7930;BME280;4010;42.698;23.124;2022-09-09T05:54:31;118349.16;;;-140.64;100.00
7930;BME280;4010;42.698;23.124;2022-09-09T05:56:57;118349.16;;;-140.64;100.00
7930;BME280;4010;42.698;23.124;2022-09-09T05:59:24;118349.16;;;-140.64;100.00
7930;BME280;4010;42.698;23.124;2022-09-09T06:01:51;118349.16;;;-140.64;100.00
7930;BME280;4010;42.698;23.124;2022-09-09T06:04:18;118349.16;;;-140.64;100.00
7930;BME280;4010;42.698;23.124;2022-09-09T06:06:47;118349.16;;;-140.64;100.00
7930;BME280;4010;42.698;23.124;2022-09-09T06:09:14;118349.16;;;-140.64;100.00
7930;BME280;4010;42.698;23.124;2022-09-09T06:11:42;118349.16;;;-140.64;100.00
7930;BME280;4010;42.698;23.124;2022-09-09T06:14:09;118349.16;;;-140.64;100.00
7930;BME280;4010;42.698;23.124;2022-09-09T06:16:36;118349.16;;;-140.64;100.00
7930;BME280;4010;42.698;23.124;2022-09-09T06:19:04;118349.16;;;-140.64;100.00
7930;BME280;4010;42.698;23.124;2022-09-09T06:21:31;118349.16;;;-140.64;100.00
7930;BME280;4010;42.698;23.124;2022-09-09T06:23:59;118349.16;;;-140.64;100.00
7930;BME280;4010;42.698;23.124;2022-09-09T06:26:27;118349.16;;;-140.64;100.00
7930;BME280;4010;42.698;23.124;2022-09-09T06:28:57;118349.16;;;-140.64;100.00
7930;BME280;4010;42.698;23.124;2022-09-09T06:31:26;118349.16;;;-140.64;100.00
7930;BME280;4010;42.698;23.124;2022-09-09T06:33:56;118349.16;;;-140.64;100.00
7930;BME280;4010;42.698;23.124;2022-09-09T06:36:25;118349.16;;;-140.64;100.00
7930;BME280;4010;42.698;23.124;2022-09-09T06:38:52;118349.16;;;-140.64;100.00
7930;BME280;4010;42.698;23.124;2022-09-09T06:41:21;118349.16;;;-140.64;100.00
7930;BME280;4010;42.698;23.124;2022-09-09T06:43:48;118349.16;;;-140.64;100.00
7930;BME280;4010;42.698;23.124;2022-09-09T06:46:18;118349.16;;;-140.64;100.00
7930;BME280;4010;42.698;23.124;2022-09-09T06:48:45;118349.16;;;-140.64;100.00
7930;BME280;4010;42.698;23.124;2022-09-09T06:51:14;118349.16;;;-140.64;100.00
7930;BME280;4010;42.698;23.124;2022-09-09T06:53:42;118349.16;;;-140.64;100.00
7930;BME280;4010;42.698;23.124;2022-09-09T06:56:20;118349.16;;;-140.64;100.00
7930;BME280;4010;42.698;23.124;2022-09-09T06:58:49;118349.16;;;-140.64;100.00
7930;BME280;4010;42.698;23.124;2022-09-09T07:01:19;118349.16;;;-140.64;100.00
7930;BME280;4010;42.698;23.124;2022-09-09T07:03:49;118349.16;;;-140.64;100.00
7930;BME280;4010;42.698;23.124;2022-09-09T07:06:18;118349.16;;;-140.64;100.00
7930;BME280;4010;42.698;23.124;2022-09-09T07:08:49;118349.16;;;-140.64;100.00
7930;BME280;4010;42.698;23.124;2022-09-09T07:11:18;118349.16;;;-140.64;100.00
7930;BME280;4010;42.698;23.124;2022-09-09T07:13:45;118349.16;;;-140.64;100.00
7930;BME280;4010;42.698;23.124;2022-09-09T07:16:14;118349.16;;;-140.64;100.00
7930;BME280;4010;42.698;23.124;2022-09-09T07:18:43;118349.16;;;-140.64;100.00
7930;BME280;4010;42.698;23.124;2022-09-09T07:21:11;118349.16;;;-140.64;100.00
7930;BME280;4010;42.698;23.124;2022-09-09T07:23:38;118349.16;;;-140.64;100.00
7930;BME280;4010;42.698;23.124;2022-09-09T07:26:08;118349.16;;;-140.64;100.00
7930;BME280;4010;42.698;23.124;2022-09-09T07:28:36;118349.16;;;-140.64;100.00
7930;BME280;4010;42.698;23.124;2022-09-09T07:31:04;118349.16;;;-140.64;100.00
7930;BME280;4010;42.698;23.124;2022-09-09T07:33:32;118349.16;;;-140.64;100.00
7930;BME280;4010;42.698;23.124;2022-09-09T07:36:06;118349.16;;;-140.64;100.00
7930;BME280;4010;42.698;23.124;2022-09-09T07:38:38;118349.16;;;-140.64;100.00
7930;BME280;4010;42.698;23.124;2022-09-09T07:41:07;118349.16;;;-140.64;100.00
7930;BME280;4010;42.698;23.124;2022-09-09T07:43:37;118349.16;;;-140.64;100.00
7930;BME280;4010;42.698;23.124;2022-09-09T07:46:04;118349.16;;;-140.64;100.00
7930;BME280;4010;42.698;23.124;2022-09-09T07:48:31;118349.16;;;-140.64;99.74
7930;BME280;4010;42.698;23.124;2022-09-09T07:51:08;118349.16;;;-140.64;100.00
7930;BME280;4010;42.698;23.124;2022-09-09T07:53:36;118349.16;;;-140.64;100.00
7930;BME280;4010;42.698;23.124;2022-09-09T07:56:06;118349.16;;;-140.64;100.00
7930;BME280;4010;42.698;23.124;2022-09-09T07:58:34;118349.16;;;-140.64;100.00
7930;BME280;4010;42.698;23.124;2022-09-09T08:01:06;118349.16;;;-140.64;99.57
7930;BME280;4010;42.698;23.124;2022-09-09T08:03:33;118349.16;;;-140.64;100.00
7930;BME280;4010;42.698;23.124;2022-09-09T08:06:01;118349.16;;;-140.64;100.00
7930;BME280;4010;42.698;23.124;2022-09-09T08:08:30;118349.16;;;-140.64;100.00
7930;BME280;4010;42.698;23.124;2022-09-09T08:11:04;118349.16;;;-140.64;100.00
7930;BME280;4010;42.698;23.124;2022-09-09T08:13:33;118349.16;;;-140.64;96.33
7930;BME280;4010;42.698;23.124;2022-09-09T08:16:10;118349.16;;;-140.64;98.59
7930;BME280;4010;42.698;23.124;2022-09-09T08:18:38;118349.16;;;-140.64;95.06
7930;BME280;4010;42.698;23.124;2022-09-09T08:21:06;118349.16;;;-140.64;93.41
7930;BME280;4010;42.698;23.124;2022-09-09T08:23:35;118349.16;;;-140.64;92.78
7930;BME280;4010;42.698;23.124;2022-09-09T08:26:07;118349.16;;;-140.64;95.35
7930;BME280;4010;42.698;23.124;2022-09-09T08:28:34;118349.16;;;-140.64;92.56
7930;BME280;4010;42.698;23.124;2022-09-09T08:31:08;118349.16;;;-140.64;90.85
7930;BME280;4010;42.698;23.124;2022-09-09T08:33:36;118349.16;;;-140.64;94.80
7930;BME280;4010;42.698;23.124;2022-09-09T08:36:04;118349.16;;;-140.64;94.66
7930;BME280;4010;42.698;23.124;2022-09-09T08:38:31;118349.16;;;-140.64;91.33
7930;BME280;4010;42.698;23.124;2022-09-09T08:41:35;118349.16;;;-140.64;94.00
7930;BME280;4010;42.698;23.124;2022-09-09T08:44:10;118349.16;;;-140.64;94.03
7930;BME280;4010;42.698;23.124;2022-09-09T08:46:47;118349.16;;;-140.64;92.89
7930;BME280;4010;42.698;23.124;2022-09-09T08:49:39;118349.16;;;-140.64;89.88
7930;BME280;4010;42.698;23.124;2022-09-09T08:52:15;118349.16;;;-140.64;89.10
7930;BME280;4010;42.698;23.124;2022-09-09T08:54:44;118349.16;;;-140.64;86.55
7930;BME280;4010;42.698;23.124;2022-09-09T08:57:16;118349.16;;;-140.64;86.81
7930;BME280;4010;42.698;23.124;2022-09-09T08:59:44;118349.16;;;-140.64;88.49
7930;BME280;4010;42.698;23.124;2022-09-09T09:02:16;118349.16;;;-140.64;89.36
7930;BME280;4010;42.698;23.124;2022-09-09T09:04:55;118349.16;;;-140.64;88.78
7930;BME280;4010;42.698;23.124;2022-09-09T09:07:33;118349.16;;;-140.64;87.87
7930;BME280;4010;42.698;23.124;2022-09-09T09:10:10;118349.16;;;-140.64;88.18
7930;BME280;4010;42.698;23.124;2022-09-09T09:12:43;118349.16;;;-140.64;85.15
7930;BME280;4010;42.698;23.124;2022-09-09T09:15:18;118349.16;;;-140.64;88.44
7930;BME280;4010;42.698;23.124;2022-09-09T09:17:46;118349.16;;;-140.64;89.56
7930;BME280;4010;42.698;23.124;2022-09-09T09:20:15;118349.16;;;-140.64;86.54
7930;BME280;4010;42.698;23.124;2022-09-09T09:22:48;118349.16;;;-140.64;86.77
7930;BME280;4010;42.698;23.124;2022-09-09T09:25:18;118349.16;;;-140.64;84.87
7930;BME280;4010;42.698;23.124;2022-09-09T09:27:52;118349.16;;;-140.64;84.54
7930;BME280;4010;42.698;23.124;2022-09-09T09:30:26;118349.16;;;-140.64;87.81
7930;BME280;4010;42.698;23.124;2022-09-09T09:32:59;118349.16;;;-140.64;88.89
7930;BME280;4010;42.698;23.124;2022-09-09T09:35:27;118349.16;;;-140.64;94.85
7930;BME280;4010;42.698;23.124;2022-09-09T09:37:54;118349.16;;;-140.64;89.90
7930;BME280;4010;42.698;23.124;2022-09-09T09:40:22;118349.16;;;-140.64;96.71
7930;BME280;4010;42.698;23.124;2022-09-09T09:42:52;118349.16;;;-140.64;93.12
7930;BME280;4010;42.698;23.124;2022-09-09T09:45:28;118349.16;;;-140.64;93.82
7930;BME280;4010;42.698;23.124;2022-09-09T09:48:01;118349.16;;;-140.64;92.32
7930;BME280;4010;42.698;23.124;2022-09-09T09:50:29;118349.16;;;-140.64;92.58
7930;BME280;4010;42.698;23.124;2022-09-09T09:52:58;118349.16;;;-140.64;93.77
7930;BME280;4010;42.698;23.124;2022-09-09T09:55:26;118349.16;;;-140.64;99.24
7930;BME280;4010;42.698;23.124;2022-09-09T09:58:03;118349.16;;;-140.64;94.77
7930;BME280;4010;42.698;23.124;2022-09-09T10:00:30;118349.16;;;-140.64;94.92
7930;BME280;4010;42.698;23.124;2022-09-09T10:02:56;118349.16;;;-140.64;100.00
7930;BME280;4010;42.698;23.124;2022-09-09T10:05:27;118349.16;;;-140.64;95.56
7930;BME280;4010;42.698;23.124;2022-09-09T10:08:05;118349.16;;;-140.64;95.86
7930;BME280;4010;42.698;23.124;2022-09-09T10:11:05;118349.16;;;-140.64;97.20
7930;BME280;4010;42.698;23.124;2022-09-09T10:13:42;118349.16;;;-140.64;100.00
7930;BME280;4010;42.698;23.124;2022-09-09T10:16:25;118349.16;;;-140.64;100.00
7930;BME280;4010;42.698;23.124;2022-09-09T10:18:59;118349.16;;;-140.64;100.00
7930;BME280;4010;42.698;23.124;2022-09-09T10:21:46;118349.16;;;-140.64;100.00
7930;BME280;4010;42.698;23.124;2022-09-09T10:24:43;118349.16;;;-140.64;100.00
7930;BME280;4010;42.698;23.124;2022-09-09T10:27:19;118349.16;;;-140.64;100.00
7930;BME280;4010;42.698;23.124;2022-09-09T10:30:06;118349.16;;;-140.64;100.00
7930;BME280;4010;42.698;23.124;2022-09-09T10:32:48;118349.16;;;-140.64;99.47
7930;BME280;4010;42.698;23.124;2022-09-09T10:35:29;118349.16;;;-140.64;100.00
7930;BME280;4010;42.698;23.124;2022-09-09T10:38:17;118349.16;;;-140.64;97.11
7930;BME280;4010;42.698;23.124;2022-09-09T10:41:11;118349.16;;;-140.64;100.00
7930;BME280;4010;42.698;23.124;2022-09-09T10:46:34;118349.16;;;-140.64;97.71
7930;BME280;4010;42.698;23.124;2022-09-09T10:49:14;118349.16;;;-140.64;96.53
7930;BME280;4010;42.698;23.124;2022-09-09T10:51:52;118349.16;;;-140.64;97.14
7930;BME280;4010;42.698;23.124;2022-09-09T10:54:31;118349.16;;;-140.64;99.03
7930;BME280;4010;42.698;23.124;2022-09-09T10:57:08;118349.16;;;-140.64;99.79
7930;BME280;4010;42.698;23.124;2022-09-09T10:59:40;118349.16;;;-140.64;94.39
7930;BME280;4010;42.698;23.124;2022-09-09T11:02:15;118349.16;;;-140.64;95.51
7930;BME280;4010;42.698;23.124;2022-09-09T11:04:48;118349.16;;;-140.64;95.81
7930;BME280;4010;42.698;23.124;2022-09-09T11:07:25;118349.16;;;-140.64;95.88
7930;BME280;4010;42.698;23.124;2022-09-09T11:09:56;118349.16;;;-140.64;96.43
7930;BME280;4010;42.698;23.124;2022-09-09T11:12:28;118349.16;;;-140.64;98.04
7930;BME280;4010;42.698;23.124;2022-09-09T11:14:59;118349.16;;;-140.64;97.01
7930;BME280;4010;42.698;23.124;2022-09-09T11:17:37;118349.16;;;-140.64;96.50
7930;BME280;4010;42.698;23.124;2022-09-09T11:20:06;118349.16;;;-140.64;99.95
7930;BME280;4010;42.698;23.124;2022-09-09T11:22:42;118349.16;;;-140.64;98.10
7930;BME280;4010;42.698;23.124;2022-09-09T11:25:15;118349.16;;;-140.64;98.56
7930;BME280;4010;42.698;23.124;2022-09-09T11:27:54;118349.16;;;-140.64;99.24
7930;BME280;4010;42.698;23.124;2022-09-09T11:30:31;118349.16;;;-140.64;100.00
7930;BME280;4010;42.698;23.124;2022-09-09T11:33:31;118349.16;;;-140.64;99.54
7930;BME280;4010;42.698;23.124;2022-09-09T11:36:22;118349.16;;;-140.64;99.79
7930;BME280;4010;42.698;23.124;2022-09-09T11:38:52;118349.16;;;-140.64;98.30
7930;BME280;4010;42.698;23.124;2022-09-09T11:41:20;118349.16;;;-140.64;96.07
7930;BME280;4010;42.698;23.124;2022-09-09T11:43:49;118349.16;;;-140.64;97.24
7930;BME280;4010;42.698;23.124;2022-09-09T11:46:19;118349.16;;;-140.64;97.46
7930;BME280;4010;42.698;23.124;2022-09-09T11:48:59;118349.16;;;-140.64;95.50
7930;BME280;4010;42.698;23.124;2022-09-09T11:51:27;118349.16;;;-140.64;96.50
7930;BME280;4010;42.698;23.124;2022-09-09T11:53:57;118349.16;;;-140.64;93.88
7930;BME280;4010;42.698;23.124;2022-09-09T11:56:28;118349.16;;;-140.64;97.19
7930;BME280;4010;42.698;23.124;2022-09-09T11:59:01;118349.16;;;-140.64;98.99
7930;BME280;4010;42.698;23.124;2022-09-09T12:01:39;118349.16;;;-140.64;99.29
7930;BME280;4010;42.698;23.124;2022-09-09T12:04:32;118349.16;;;-140.64;99.52
7930;BME280;4010;42.698;23.124;2022-09-09T12:07:01;118349.16;;;-140.64;98.72
7930;BME280;4010;42.698;23.124;2022-09-09T12:09:33;118349.16;;;-140.64;99.85
7930;BME280;4010;42.698;23.124;2022-09-09T12:12:20;118349.16;;;-140.64;100.00
7930;BME280;4010;42.698;23.124;2022-09-09T12:14:57;118349.16;;;-140.64;99.03
7930;BME280;4010;42.698;23.124;2022-09-09T12:17:27;118349.16;;;-140.64;100.00
7930;BME280;4010;42.698;23.124;2022-09-09T12:20:11;118349.16;;;-140.64;98.67
7930;BME280;4010;42.698;23.124;2022-09-09T12:25:30;118349.16;;;-140.64;100.00
7930;BME280;4010;42.698;23.124;2022-09-09T12:28:06;118349.16;;;-140.64;100.00
7930;BME280;4010;42.698;23.124;2022-09-09T12:30:42;118349.16;;;-140.64;100.00
7930;BME280;4010;42.698;23.124;2022-09-09T12:33:16;118349.16;;;-140.64;99.70
7930;BME280;4010;42.698;23.124;2022-09-09T12:35:51;118349.16;;;-140.64;100.00
7930;BME280;4010;42.698;23.124;2022-09-09T12:38:26;118349.16;;;-140.64;99.53
7930;BME280;4010;42.698;23.124;2022-09-09T12:40:57;118349.16;;;-140.64;100.00
7930;BME280;4010;42.698;23.124;2022-09-09T12:43:27;118349.16;;;-140.64;100.00
7930;BME280;4010;42.698;23.124;2022-09-09T12:45:57;118349.16;;;-140.64;100.00
7930;BME280;4010;42.698;23.124;2022-09-09T12:48:32;118349.16;;;-140.64;100.00
7930;BME280;4010;42.698;23.124;2022-09-09T12:51:19;118349.16;;;-140.64;100.00
7930;BME280;4010;42.698;23.124;2022-09-09T12:53:47;118349.16;;;-140.64;100.00
7930;BME280;4010;42.698;23.124;2022-09-09T12:56:20;118349.16;;;-140.64;100.00
7930;BME280;4010;42.698;23.124;2022-09-09T12:58:50;118349.16;;;-140.64;100.00
7930;BME280;4010;42.698;23.124;2022-09-09T13:01:21;118349.16;;;-140.64;100.00
7930;BME280;4010;42.698;23.124;2022-09-09T13:03:48;118349.16;;;-140.64;100.00
7930;BME280;4010;42.698;23.124;2022-09-09T13:06:21;118349.16;;;-140.64;100.00
7930;BME280;4010;42.698;23.124;2022-09-09T13:08:57;118349.16;;;-140.64;100.00
7930;BME280;4010;42.698;23.124;2022-09-09T13:11:29;118349.16;;;-140.64;100.00
7930;BME280;4010;42.698;23.124;2022-09-09T13:13:57;118349.16;;;-140.64;100.00
7930;BME280;4010;42.698;23.124;2022-09-09T13:16:26;118349.16;;;-140.64;100.00
7930;BME280;4010;42.698;23.124;2022-09-09T13:18:57;118349.16;;;-140.64;100.00
7930;BME280;4010;42.698;23.124;2022-09-09T13:21:36;118349.16;;;-140.64;100.00
7930;BME280;4010;42.698;23.124;2022-09-09T13:24:04;118349.16;;;-140.64;100.00
7930;BME280;4010;42.698;23.124;2022-09-09T13:26:34;118349.16;;;-140.64;100.00
7930;BME280;4010;42.698;23.124;2022-09-09T13:29:09;118349.16;;;-140.64;100.00
7930;BME280;4010;42.698;23.124;2022-09-09T13:31:43;118349.16;;;-140.64;100.00
7930;BME280;4010;42.698;23.124;2022-09-09T13:34:12;118349.16;;;-140.64;100.00
7930;BME280;4010;42.698;23.124;2022-09-09T13:36:41;118349.16;;;-140.64;100.00
7930;BME280;4010;42.698;23.124;2022-09-09T13:39:15;118349.16;;;-140.64;100.00